Flight Track Log - Related Links

Times and Time Zones

All times are in EDT time to prevent confusion due to time zone crossing. See the FDX1347 flight status page for this flight to view local times or setup timezone preferences in your user account.


Time Position Orientation Groundspeed Altitude Reporting Facility
EDT Latitude Longitude Course Direction KTS MPH feet Rate Location/Type
Wed 09:49:02 PM 42.7236 -73.8081 179° South 163 188 1,600  Level Boston Center
Wed 09:49:38 PM 42.6922 -73.8072 179° South 185 213 3,000 2,367 Climbing Boston Center
Wed 09:50:51 PM 42.6683 -73.8831 247° West 269 310 5,900 2,891 Climbing Boston Center
Wed 09:56:31 PM 42.4130 -74.5240 247° West 445 512 22,900 2,680 Climbing FlightAware ADS-B
Wed 09:57:34 PM 42.3100 -74.5930 206° Southwest 448 516 23,900 2,333 Climbing FlightAware ADS-B
Wed 09:58:01 PM 42.2670 -74.6620 230° Southwest 427 491 26,400 2,677 Climbing FlightAware ADS-B
Wed 09:58:39 PM 42.2290 -74.7380 236° Southwest 422 486 26,800 1,723 Climbing FlightAware ADS-B
Wed 09:59:35 PM 42.1910 -74.8910 252° West 435 501 29,100 2,250 Climbing FlightAware ADS-B
Wed 10:00:15 PM 42.1610 -74.9900 248° West 440 506 30,400 2,360 Climbing FlightAware ADS-B
Wed 10:01:04 PM 42.1230 -75.1160 248° West 428 493 32,600 2,831 Climbing FlightAware ADS-B
Wed 10:01:44 PM 42.0940 -75.2150 248° West 411 473 34,600 2,096 Climbing FlightAware ADS-B
Wed 10:02:27 PM 42.0590 -75.3140 245° Southwest 433 498 35,500 1,325 Climbing FlightAware ADS-B
Wed 10:03:01 PM 42.0200 -75.3760 230° Southwest 450 518 36,300 1,600 Climbing FlightAware ADS-B
Wed 10:03:42 PM 41.9530 -75.4670 225° Southwest 449 517 37,500 1,600 Climbing FlightAware ADS-B
Wed 10:04:31 PM 41.8810 -75.5640 225° Southwest 442 509 38,700 1,256 Climbing FlightAware ADS-B
Wed 10:05:08 PM 41.8300 -75.6340 226° Southwest 442 509 39,300 951 Climbing FlightAware ADS-B
Wed 10:05:53 PM 41.7700 -75.7150 225° Southwest 434 499 40,000 483 Climbing FlightAware ADS-B
Wed 10:06:35 PM 41.7080 -75.8010 226° Southwest 426 490 40,000  Level FlightAware ADS-B
Wed 10:07:17 PM 41.6480 -75.8820 225° Southwest 439 505 40,000  Level FlightAware ADS-B
Wed 10:08:01 PM 41.5830 -75.9710 226° Southwest 441 507 40,000  Level FlightAware ADS-B
Wed 10:08:46 PM 41.5220 -76.0530 225° Southwest 439 505 40,000  Level FlightAware ADS-B
Wed 10:09:26 PM 41.4690 -76.1230 225° Southwest 442 509 40,000  Level FlightAware ADS-B
Wed 10:10:07 PM 41.4010 -76.2150 225° Southwest 451 519 40,000  Level FlightAware ADS-B
Wed 10:10:47 PM 41.3410 -76.2960 225° Southwest 452 520 40,000  Level FlightAware ADS-B
Wed 10:11:31 PM 41.2850 -76.3690 224° Southwest 452 520 40,000  Level FlightAware ADS-B
Wed 10:12:15 PM 41.2130 -76.4650 225° Southwest 443 510 40,000  Level FlightAware ADS-B
Wed 10:12:55 PM 41.1550 -76.5420 225° Southwest 444 511 40,000  Level FlightAware ADS-B
Wed 10:13:40 PM 41.0880 -76.6300 225° Southwest 439 505 40,000  Level FlightAware ADS-B
Wed 10:14:20 PM 41.0310 -76.7060 225° Southwest 436 502 40,000  Level FlightAware ADS-B
Wed 10:14:56 PM 40.9810 -76.7720 225° Southwest 434 499 40,000  Level FlightAware ADS-B
Wed 10:15:43 PM 40.9130 -76.8610 225° Southwest 431 496 40,000  Level FlightAware ADS-B
Wed 10:16:26 PM 40.8520 -76.9400 224° Southwest 429 494 40,000  Level FlightAware ADS-B
Wed 10:17:07 PM 40.7940 -77.0150 224° Southwest 427 491 40,000  Level FlightAware ADS-B
Wed 10:17:48 PM 40.7370 -77.0900 225° Southwest 425 489 40,000  Level FlightAware ADS-B
Wed 10:18:33 PM 40.6770 -77.1670 224° Southwest 418 481 40,000  Level FlightAware ADS-B
Wed 10:19:13 PM 40.6200 -77.2420 225° Southwest 417 480 40,000  Level FlightAware ADS-B
Wed 10:19:53 PM 40.5630 -77.3160 225° Southwest 416 479 40,000  Level FlightAware ADS-B
Wed 10:20:51 PM 40.4930 -77.4060 224° Southwest 415 478 40,000  Level FlightAware ADS-B
Wed 10:21:36 PM 40.4240 -77.4930 224° Southwest 414 476 40,000  Level FlightAware ADS-B
Wed 10:22:16 PM 40.3680 -77.5660 225° Southwest 415 478 40,000  Level FlightAware ADS-B
Wed 10:22:55 PM 40.3130 -77.6360 224° Southwest 416 479 40,000  Level FlightAware ADS-B
Wed 10:23:35 PM 40.2540 -77.7110 224° Southwest 425 489 40,000  Level FlightAware ADS-B
Wed 10:24:20 PM 40.1900 -77.7910 224° Southwest 426 490 40,000  Level FlightAware ADS-B
Wed 10:25:00 PM 40.1380 -77.8580 225° Southwest 427 491 40,000  Level FlightAware ADS-B
Wed 10:26:01 PM 40.0440 -77.9760 224° Southwest 429 494 40,000  Level FlightAware ADS-B
Wed 10:26:44 PM 39.9840 -78.0520 224° Southwest 431 496 40,000  Level FlightAware ADS-B
Wed 10:27:23 PM 39.9270 -78.1220 223° Southwest 432 497 40,000  Level FlightAware ADS-B
Wed 10:28:03 PM 39.8700 -78.1950 225° Southwest 433 498 40,000  Level FlightAware ADS-B
Wed 10:28:47 PM 39.8100 -78.2690 223° Southwest 434 499 40,000  Level FlightAware ADS-B
Wed 10:29:27 PM 39.7510 -78.3430 224° Southwest 436 502 40,000  Level FlightAware ADS-B
Wed 10:30:13 PM 39.6810 -78.4290 223° Southwest 437 503 40,000  Level FlightAware ADS-B
Wed 10:30:55 PM 39.6190 -78.5070 224° Southwest 438 504 40,000  Level FlightAware ADS-B
Wed 10:31:37 PM 39.5580 -78.5830 224° Southwest 439 505 40,000  Level FlightAware ADS-B
Wed 10:32:13 PM 39.5040 -78.6480 223° Southwest 438 504 40,000  Level FlightAware ADS-B
Wed 10:33:01 PM 39.4360 -78.7310 223° Southwest 437 503 40,000  Level FlightAware ADS-B
Wed 10:33:41 PM 39.3760 -78.8050 224° Southwest 437 503 40,000  Level FlightAware ADS-B
Wed 10:34:25 PM 39.3100 -78.8850 223° Southwest 436 502 40,000  Level FlightAware ADS-B
Wed 10:35:05 PM 39.2530 -78.9550 224° Southwest 435 501 40,000  Level FlightAware ADS-B
Wed 10:35:47 PM 39.1960 -79.0340 227° Southwest 428 493 40,000  Level FlightAware ADS-B
Wed 10:36:32 PM 39.1400 -79.1180 229° Southwest 428 493 40,000  Level FlightAware ADS-B
Wed 10:37:13 PM 39.0850 -79.2030 230° Southwest 428 493 40,000  Level FlightAware ADS-B
Wed 10:37:53 PM 39.0330 -79.2810 229° Southwest 425 489 40,000  Level FlightAware ADS-B
Wed 10:38:37 PM 38.9760 -79.3670 230° Southwest 424 488 40,000  Level FlightAware ADS-B
Wed 10:39:13 PM 38.9370 -79.4390 235° Southwest 416 479 40,000  Level FlightAware ADS-B
Wed 10:39:59 PM 38.9060 -79.5430 249° West 409 471 40,000  Level FlightAware ADS-B
Wed 10:40:41 PM 38.8820 -79.6430 253° West 410 472 40,000  Level FlightAware ADS-B
Wed 10:41:23 PM 38.8590 -79.7380 253° West 410 472 40,000  Level FlightAware ADS-B
Wed 10:42:03 PM 38.8370 -79.8290 253° West 412 474 40,000  Level FlightAware ADS-B
Wed 10:42:47 PM 38.8120 -79.9340 253° West 412 474 40,000  Level FlightAware ADS-B
Wed 10:43:28 PM 38.7890 -80.0300 253° West 413 475 40,000  Level FlightAware ADS-B
Wed 10:44:11 PM 38.7640 -80.1320 253° West 413 475 40,000  Level FlightAware ADS-B
Wed 10:44:53 PM 38.7400 -80.2290 252° West 415 478 40,000  Level FlightAware ADS-B
Wed 10:46:04 PM 38.7080 -80.3600 253° West 419 482 40,000  Level FlightAware ADS-B
Wed 10:46:43 PM 38.6750 -80.4910 252° West 421 484 40,000  Level FlightAware ADS-B
Wed 10:47:27 PM 38.6500 -80.5960 253° West 424 488 40,000  Level FlightAware ADS-B
Wed 10:48:09 PM 38.6240 -80.6940 251° West 427 491 40,000  Level FlightAware ADS-B
Wed 10:48:51 PM 38.5990 -80.7950 252° West 429 494 40,000  Level FlightAware ADS-B
Wed 10:49:31 PM 38.5740 -80.8940 252° West 429 494 40,000  Level FlightAware ADS-B
Wed 10:50:15 PM 38.5520 -80.9830 252° West 430 495 40,000  Level FlightAware ADS-B
Wed 10:50:57 PM 38.5220 -81.1020 252° West 431 496 40,000  Level FlightAware ADS-B
Wed 10:51:41 PM 38.4950 -81.2080 252° West 430 495 40,000  Level FlightAware ADS-B
Wed 10:52:23 PM 38.4700 -81.3070 252° West 429 494 40,000  Level FlightAware ADS-B
Wed 10:53:03 PM 38.4445 -81.4027 251° West 429 494 40,000  Level FlightAware ADS-B
Wed 10:53:37 PM 38.4231 -81.4867 252° West 428 493 40,000  Level FlightAware ADS-B
Wed 10:54:10 PM 38.4026 -81.5657 252° West 428 493 40,000  Level FlightAware ADS-B
Wed 10:55:25 PM 38.3560 -81.7420 251° West 426 490 40,000  Level FlightAware ADS-B
Wed 10:56:07 PM 38.3220 -81.8360 245° Southwest 429 494 40,000  Level FlightAware ADS-B
Wed 10:56:49 PM 38.2830 -81.9300 242° Southwest 432 497 40,000  Level FlightAware ADS-B
Wed 10:57:33 PM 38.2400 -82.0310 242° Southwest 434 499 40,000  Level FlightAware ADS-B
Wed 10:57:47 PM 38.2258 -82.0649 242° Southwest 435 501 40,000  Level FlightAware ADS-B
Wed 10:58:19 PM 38.1956 -82.1371 242° Southwest 438 504 40,000  Level FlightAware ADS-B
Wed 10:58:49 PM 38.1666 -82.2052 242° Southwest 440 506 40,000  Level FlightAware ADS-B
Wed 10:59:20 PM 38.1371 -82.2758 242° Southwest 441 507 40,000  Level FlightAware ADS-B
Wed 10:59:51 PM 38.1075 -82.3444 241° Southwest 442 509 40,000  Level FlightAware ADS-B
Wed 11:00:25 PM 38.0736 -82.4246 242° Southwest 445 512 40,000  Level FlightAware ADS-B
Wed 11:01:21 PM 38.0187 -82.5536 242° Southwest 449 517 40,000  Level FlightAware ADS-B
Wed 11:01:53 PM 37.9875 -82.6254 241° Southwest 450 518 40,000  Level FlightAware ADS-B
Wed 11:02:23 PM 37.9576 -82.6951 241° Southwest 451 519 40,000  Level FlightAware ADS-B
Wed 11:02:53 PM 37.9275 -82.7673 242° Southwest 453 521 40,000  Level FlightAware ADS-B
Wed 11:03:30 PM 37.8906 -82.8513 241° Southwest 454 522 40,000  Level FlightAware ADS-B
Wed 11:04:04 PM 37.8556 -82.9330 242° Southwest 455 524 40,000  Level FlightAware ADS-B
Wed 11:04:45 PM 37.8150 -83.0260 241° Southwest 456 525 40,000  Level FlightAware ADS-B
Wed 11:05:04 PM 37.7949 -83.0734 242° Southwest 456 525 40,000  Level FlightAware ADS-B
Wed 11:05:41 PM 37.7575 -83.1599 241° Southwest 457 526 40,000  Level FlightAware ADS-B
Wed 11:06:11 PM 37.7268 -83.2300 241° Southwest 458 527 40,000  Level FlightAware ADS-B
Wed 11:06:41 PM 37.6958 -83.3002 241° Southwest 457 526 40,000  Level FlightAware ADS-B
Wed 11:07:13 PM 37.6640 -83.3725 241° Southwest 457 526 40,000  Level FlightAware ADS-B
Wed 11:07:46 PM 37.6300 -83.4515 241° Southwest 456 525 40,000  Level FlightAware ADS-B
Wed 11:08:47 PM 37.5676 -83.5929 241° Southwest 456 525 40,000  Level FlightAware ADS-B
Wed 11:09:17 PM 37.5367 -83.6624 241° Southwest 454 522 40,000  Level FlightAware ADS-B
Wed 11:09:47 PM 37.5060 -83.7315 241° Southwest 454 522 40,000  Level FlightAware ADS-B
Wed 11:10:17 PM 37.4753 -83.8006 241° Southwest 453 521 40,000  Level FlightAware ADS-B
Wed 11:10:51 PM 37.4414 -83.8764 241° Southwest 453 521 40,000  Level FlightAware ADS-B
Wed 11:11:24 PM 37.4120 -83.9410 240° Southwest 452 520 40,000  Level FlightAware ADS-B
Wed 11:11:54 PM 37.3763 -84.0229 241° Southwest 452 520 40,000  Level FlightAware ADS-B
Wed 11:12:26 PM 37.3436 -84.0960 241° Southwest 450 518 40,000  Level FlightAware ADS-B
Wed 11:12:57 PM 37.3125 -84.1641 240° Southwest 450 518 40,000  Level FlightAware ADS-B
Wed 11:13:27 PM 37.2818 -84.2343 241° Southwest 449 517 40,000  Level FlightAware ADS-B
Wed 11:13:58 PM 37.2505 -84.3022 240° Southwest 447 514 40,000  Level FlightAware ADS-B
Wed 11:14:32 PM 37.2156 -84.3808 241° Southwest 446 513 40,000  Level FlightAware ADS-B
Wed 11:15:07 PM 37.1797 -84.4592 240° Southwest 445 512 40,000  Level FlightAware ADS-B
Wed 11:15:38 PM 37.1488 -84.5285 241° Southwest 444 511 40,000  Level FlightAware ADS-B
Wed 11:16:24 PM 37.1019 -84.6314 240° Southwest 444 511 40,000  Level FlightAware ADS-B
Wed 11:17:06 PM 37.0600 -84.7230 240° Southwest 444 511 40,000  Level FlightAware ADS-B
Wed 11:17:23 PM 37.0413 -84.7630 240° Southwest 445 512 40,000  Level FlightAware ADS-B
Wed 11:17:55 PM 37.0096 -84.8320 240° Southwest 444 511 40,000  Level FlightAware ADS-B
Wed 11:18:25 PM 36.9780 -84.9011 240° Southwest 443 510 40,000  Level FlightAware ADS-B
Wed 11:18:57 PM 36.9460 -84.9721 241° Southwest 443 510 40,000  Level FlightAware ADS-B
Wed 11:19:33 PM 36.9091 -85.0520 240° Southwest 443 510 40,000  Level FlightAware ADS-B
Wed 11:20:11 PM 36.8705 -85.1339 240° Southwest 443 510 40,000  Level FlightAware ADS-B
Wed 11:20:42 PM 36.8380 -85.2046 240° Southwest 443 510 40,000  Level FlightAware ADS-B
Wed 11:21:14 PM 36.8061 -85.2730 240° Southwest 442 509 40,000  Level FlightAware ADS-B
Wed 11:21:45 PM 36.7743 -85.3415 240° Southwest 443 510 40,000  Level FlightAware ADS-B
Wed 11:22:15 PM 36.7434 -85.4077 240° Southwest 443 510 40,000  Level FlightAware ADS-B
Wed 11:22:51 PM 36.7061 -85.4892 240° Southwest 443 510 40,000  Level FlightAware ADS-B
Wed 11:23:22 PM 36.6734 -85.5575 239° Southwest 443 510 40,000  Level FlightAware ADS-B
Wed 11:24:06 PM 36.6288 -85.6525 240° Southwest 444 511 40,000  Level FlightAware ADS-B
Wed 11:24:58 PM 36.5750 -85.7690 240° Southwest 444 511 40,000  Level FlightAware ADS-B
Wed 11:25:15 PM 36.5572 -85.8045 238° Southwest 445 512 40,000  Level FlightAware ADS-B
Wed 11:25:50 PM 36.5203 -85.8837 240° Southwest 444 511 40,000  Level FlightAware ADS-B
Wed 11:26:20 PM 36.4890 -85.9500 240° Southwest 444 511 40,000  Level FlightAware ADS-B
Wed 11:26:28 PM 36.4809 -85.9674 240° Southwest 444 511 40,000  Level FlightAware ADS-B
Wed 11:26:59 PM 36.4507 -86.0342 241° Southwest 443 510 40,000  Level FlightAware ADS-B
Wed 11:27:46 PM 36.4060 -86.1400 242° Southwest 442 509 40,000  Level FlightAware ADS-B
Wed 11:28:27 PM 36.3710 -86.2230 242° Southwest 442 509 40,000  Level FlightAware ADS-B
Wed 11:29:06 PM 36.3280 -86.3210 241° Southwest 441 507 40,000  Level FlightAware ADS-B
Wed 11:29:50 PM 36.2850 -86.4160 241° Southwest 443 510 40,000  Level FlightAware ADS-B
Wed 11:30:26 PM 36.2500 -86.4960 242° Southwest 442 509 40,000  Level FlightAware ADS-B
Wed 11:31:14 PM 36.2020 -86.6050 241° Southwest 442 509 40,000  Level FlightAware ADS-B
Wed 11:31:27 PM 36.1891 -86.6340 241° Southwest 442 509 40,000  Level FlightAware ADS-B
Wed 11:32:01 PM 36.1559 -86.7094 241° Southwest 441 507 40,000 -400 Level FlightAware ADS-B
Wed 11:33:12 PM 36.0870 -86.8660 241° Southwest 436 502 39,300 -730 Descending FlightAware ADS-B
Wed 11:33:56 PM 36.0440 -86.9610 241° Southwest 430 495 38,600 -1,067 Descending FlightAware ADS-B
Wed 11:34:42 PM 35.9997 -87.0605 241° Southwest 432 497 37,700 -1,231 Descending FlightAware ADS-B
Wed 11:35:14 PM 35.9687 -87.1298 241° Southwest 434 499 37,000 -1,200 Descending FlightAware ADS-B
Wed 11:36:02 PM 35.9230 -87.2320 241° Southwest 435 501 36,100 -1,200 Descending FlightAware ADS-B
Wed 11:36:44 PM 35.8820 -87.3230 241° Southwest 435 501 35,200 -805 Descending FlightAware ADS-B
Wed 11:37:24 PM 35.8440 -87.4070 241° Southwest 435 501 35,000 -150 Descending FlightAware ADS-B
Wed 11:38:04 PM 35.8040 -87.4960 241° Southwest 434 499 35,000  Level FlightAware ADS-B
Wed 11:38:50 PM 35.7580 -87.5960 240° Southwest 437 503 35,000 -289 Level FlightAware ADS-B
Wed 11:39:27 PM 35.7220 -87.6760 241° Southwest 436 502 34,600 -1,129 Descending FlightAware ADS-B
Wed 11:40:15 PM 35.6750 -87.7780 240° Southwest 440 506 33,400 -828 Descending FlightAware ADS-B
Wed 11:40:54 PM 35.6410 -87.8500 240° Southwest 440 506 33,400  Level FlightAware ADS-B
Wed 11:41:40 PM 35.6020 -87.9350 241° Southwest 440 506 33,400  Level FlightAware ADS-B
Wed 11:42:17 PM 35.5700 -88.0030 240° Southwest 440 506 33,400  Level FlightAware ADS-B
Wed 11:43:03 PM 35.5300 -88.0880 240° Southwest 440 506 33,400  Level FlightAware ADS-B
Wed 11:43:37 PM 35.5000 -88.1500 239° Southwest 440 506 33,400  Level FlightAware ADS-B
Wed 11:44:25 PM 35.4590 -88.2390 241° Southwest 440 506 33,400  Level FlightAware ADS-B
Wed 11:45:02 PM 35.4270 -88.3070 240° Southwest 440 506 33,400  Level FlightAware ADS-B
Wed 11:45:50 PM 35.3850 -88.3950 240° Southwest 440 506 33,400  Level FlightAware ADS-B
Wed 11:46:26 PM 35.3540 -88.4610 240° Southwest 440 506 33,400  Level FlightAware ADS-B
Wed 11:47:14 PM 35.3120 -88.5490 240° Southwest 440 506 33,400  Level FlightAware ADS-B
Wed 11:47:50 PM 35.2810 -88.6150 240° Southwest 440 506 33,400  Level FlightAware ADS-B
Wed 11:48:39 PM 35.2390 -88.7050 240° Southwest 440 506 33,400  Level FlightAware ADS-B
Wed 11:49:16 PM 35.2070 -88.7730 240° Southwest 440 506 33,400  Level FlightAware ADS-B
Wed 11:50:04 PM 35.1650 -88.8610 240° Southwest 440 506 33,400 -21,656 Level FlightAware ADS-B
Wed 11:50:20 PM 35.0778 -89.0656 240° Southwest 378 435 10,300 -18,711 Descending Memphis Center
Wed 11:51:20 PM 35.0389 -89.1472 240° Southwest 324 373 9,700 -1,100 Descending Memphis Center
Wed 11:52:20 PM 35.0378 -89.2361 269° West 285 328 8,100 -1,550 Descending Memphis Center
Wed 11:53:20 PM 35.0428 -89.3272 274° West 268 308 6,600 -1,400 Descending Memphis Center
Wed 11:54:20 PM 35.0433 -89.4136 270° West 268 308 5,300 -744 Descending Memphis Center
Wed 11:55:21 PM 35.0461 -89.4947 272° West 251 289 5,100 -350 Descending Memphis Center
Wed 11:56:20 PM 35.0486 -89.5783 272° West 251 289 4,600 -504 Descending Memphis Center
Wed 11:57:20 PM 35.0492 -89.6619 270° West 251 289 4,100 -550 Descending Memphis Center
Wed 11:58:20 PM 35.0517 -89.7306 273° West 245 282 3,500 -1,050 Descending Memphis Center
Wed 11:59:20 PM 35.0561 -89.8014 274° West 227 261 2,000 -900 Descending Memphis Center
Thu 12:00:20 AM 35.0564 -89.8675 270° West 210 242 1,700 -495 Descending Memphis Center
Thu 12:01:09 AM 35.0500 -89.9000 257° West 131 151 1,100 -629 Descending KMEM
Thu 12:02:05 AM 35.0500 -89.9333 270° West 106 122 600 -536 Descending KMEM
Thu 12:06:00 AM 35.0333 -89.9667 270° West  Level FlightAware Approximate
Thu 12:13:00 AM 35.0424 -89.9767 270° West  Level Estimated
Thu 12:14:00 AM 35.0424 -89.9767 270° West  Level Estimated
Thu 12:15:00 AM 35.0424 -89.9767 270° West  Level Estimated
Thu 12:16:00 AM 35.0424 -89.9767 270° West  Level Estimated
Thu 12:17:00 AM 35.0424 -89.9767 270° West  Level Estimated
Thu 12:18:00 AM 35.0424 -89.9767 270° West  Level Estimated
Thu 12:19:00 AM 35.0424 -89.9767 270° West  Level Estimated

Login

Don't have an account? Register now (free) for customized features, flight alerts, and more!